createdAt,value
2023-02-04T00:01:00.163Z,333.87342
2023-02-04T00:06:01.954Z,333.87342
2023-02-04T00:11:03.608Z,321.91411
2023-02-04T00:16:05.645Z,321.91411
2023-02-04T00:21:07.281Z,319.60976
2023-02-04T00:26:08.908Z,298.02299
2023-02-04T00:31:10.583Z,321.91411
2023-02-04T00:36:12.183Z,256.69036
2023-02-04T00:41:13.796Z,248.9505
2023-02-04T00:46:15.482Z,261.52577
2023-02-04T00:51:17.302Z,288.13408
2023-02-04T00:56:18.905Z,282.46154
2023-02-04T01:01:20.620Z,308.49704
2023-02-04T01:06:22.318Z,304.23392
2023-02-04T01:11:24.037Z,304.23392
2023-02-04T01:16:25.770Z,306.35294
2023-02-04T01:21:27.484Z,268.21053
2023-02-04T01:26:29.271Z,268.21053
2023-02-04T01:31:31.108Z,292.0226
2023-02-04T01:36:32.765Z,269.92593
2023-02-04T01:41:34.516Z,288.13408
2023-02-04T01:46:36.159Z,278.78261
2023-02-04T01:51:37.806Z,245.96078
2023-02-04T01:56:39.409Z,263.17098
2023-02-04T02:01:41.034Z,273.41176
2023-02-04T02:06:42.773Z,298.02299
2023-02-04T02:11:44.393Z,264.83333
2023-02-04T02:16:46.112Z,245.96078
2023-02-04T02:21:47.795Z,259.89744
2023-02-04T02:26:49.396Z,280.61202
2023-02-04T02:31:51.228Z,259.89744
2023-02-04T02:36:52.994Z,243.02913
2023-02-04T02:41:54.758Z,241.58454
2023-02-04T02:46:56.425Z,247.44828
2023-02-04T02:51:58.192Z,237.33333
2023-02-04T02:56:59.892Z,231.85047
2023-02-04T03:02:02.349Z,224
2023-02-04T03:07:04.053Z,250.46766
2023-02-04T03:12:05.708Z,256.69036
2023-02-04T03:17:07.349Z,252
2023-02-04T03:22:09.108Z,253.54774
2023-02-04T03:27:10.738Z,256.69036
2023-02-04T03:32:12.382Z,258.28571
2023-02-04T03:37:13.975Z,261.52577
2023-02-04T03:42:15.699Z,216.56637
2023-02-04T03:47:17.386Z,230.51163
2023-02-04T03:52:19.056Z,255.11111
2023-02-04T03:57:20.682Z,248.9505
2023-02-04T04:02:22.326Z,248.9505
2023-02-04T04:07:23.952Z,250.46766
2023-02-04T04:12:25.611Z,241.58454
2023-02-04T04:17:27.235Z,250.46766
2023-02-04T04:22:28.857Z,247.44828
2023-02-04T04:27:30.567Z,238.73684
2023-02-04T04:32:32.302Z,264.83333
2023-02-04T04:37:34.004Z,253.54774
2023-02-04T04:42:35.643Z,252
2023-02-04T04:47:37.315Z,263.17098
2023-02-04T04:52:39.056Z,263.17098
2023-02-04T04:57:40.943Z,263.17098
2023-02-04T05:02:42.658Z,266.51309
2023-02-04T05:07:44.530Z,288.13408
2023-02-04T05:12:46.193Z,282.46154
2023-02-04T05:17:47.882Z,276.97297
2023-02-04T05:22:49.657Z,266.51309
2023-02-04T05:27:51.404Z,296
2023-02-04T05:32:53.094Z,280.61202
2023-02-04T05:37:54.810Z,266.51309
2023-02-04T05:42:56.436Z,264.83333
2023-02-04T05:47:58.064Z,263.17098
2023-02-04T05:52:59.926Z,268.21053
2023-02-04T05:58:01.586Z,275.1828
2023-02-04T06:03:03.305Z,276.97297
2023-02-04T06:08:05.059Z,284.33149
2023-02-04T06:13:06.931Z,276.97297
2023-02-04T06:18:08.741Z,288.13408
2023-02-04T06:23:10.560Z,286.22222
2023-02-04T06:28:12.329Z,280.61202
2023-02-04T06:33:14.161Z,278.78261
2023-02-04T06:38:15.861Z,263.17098
2023-02-04T06:43:17.556Z,259.89744
2023-02-04T06:48:19.256Z,264.83333
2023-02-04T06:53:20.933Z,275.1828
2023-02-04T06:58:22.739Z,273.41176
2023-02-04T07:03:24.437Z,282.46154
2023-02-04T07:08:26.117Z,280.61202
2023-02-04T07:13:27.821Z,294
2023-02-04T07:18:29.807Z,300.06936
2023-02-04T07:23:31.648Z,296
2023-02-04T07:28:33.358Z,302.13953
2023-02-04T07:33:35.106Z,286.22222
2023-02-04T07:38:36.849Z,284.33149
2023-02-04T07:43:38.530Z,288.13408
2023-02-04T07:48:40.344Z,294
2023-02-04T07:53:42.103Z,298.02299
2023-02-04T07:58:43.855Z,302.13953
2023-02-04T08:03:45.656Z,296
2023-02-04T08:08:47.307Z,290.06742
2023-02-04T08:13:49.134Z,312.86228
2023-02-04T08:18:50.841Z,310.66667
2023-02-04T08:23:52.717Z,317.33333
2023-02-04T08:28:54.373Z,310.66667
2023-02-04T08:33:56.305Z,300.06936
2023-02-04T08:38:58.144Z,300.06936
2023-02-04T08:43:59.866Z,294
2023-02-04T08:49:01.548Z,296
2023-02-04T08:54:03.325Z,288.13408
2023-02-04T08:59:05.131Z,284.33149
2023-02-04T09:04:06.828Z,292.0226
2023-02-04T09:09:08.510Z,284.33149
2023-02-04T09:14:10.245Z,282.46154
2023-02-04T09:19:11.951Z,286.22222
2023-02-04T09:24:13.658Z,282.46154
2023-02-04T09:29:15.319Z,273.41176
2023-02-04T09:34:17.016Z,273.41176
2023-02-04T09:39:18.700Z,266.51309
2023-02-04T09:44:20.505Z,266.51309
2023-02-04T09:49:22.199Z,284.33149
2023-02-04T09:54:23.890Z,276.97297
2023-02-04T09:59:25.471Z,280.61202
2023-02-04T10:04:27.213Z,288.13408
2023-02-04T10:09:28.892Z,288.13408
2023-02-04T10:14:30.562Z,286.22222
2023-02-04T10:19:32.233Z,296
2023-02-04T10:24:33.965Z,290.06742
2023-02-04T10:29:35.622Z,294
2023-02-04T10:34:37.420Z,296
2023-02-04T10:39:39.204Z,298.02299
2023-02-04T10:44:40.870Z,290.06742
2023-02-04T10:49:42.584Z,288.13408
2023-02-04T10:54:44.392Z,292.0226
2023-02-04T10:59:46.051Z,290.06742
2023-02-04T11:04:47.760Z,292.0226
2023-02-04T11:09:49.487Z,294
2023-02-04T11:14:51.184Z,284.33149
2023-02-04T11:19:52.874Z,288.13408
2023-02-04T11:24:54.564Z,286.22222
2023-02-04T11:29:56.586Z,280.61202
2023-02-04T11:34:58.243Z,282.46154
2023-02-04T11:39:59.893Z,271.65957
2023-02-04T11:45:01.627Z,282.46154
2023-02-04T11:50:03.233Z,268.21053
2023-02-04T11:55:05.063Z,278.78261
2023-02-04T12:00:06.769Z,280.61202
2023-02-04T12:05:08.383Z,278.78261
2023-02-04T12:10:10.018Z,288.13408
2023-02-04T12:15:11.899Z,290.06742
2023-02-04T12:20:13.620Z,284.33149
2023-02-04T12:25:15.721Z,273.41176
2023-02-04T12:30:17.497Z,284.33149
2023-02-04T12:35:19.257Z,275.1828
2023-02-04T12:40:20.982Z,282.46154
2023-02-04T12:45:22.766Z,278.78261
2023-02-04T12:50:24.492Z,286.22222
2023-02-04T12:55:26.225Z,284.33149
2023-02-04T13:00:27.935Z,273.41176
2023-02-04T13:05:29.865Z,264.83333
2023-02-04T13:10:31.572Z,269.92593
2023-02-04T13:15:33.649Z,269.92593
2023-02-04T13:20:35.509Z,258.28571
2023-02-04T13:25:37.279Z,264.83333
2023-02-04T13:30:39.036Z,263.17098
2023-02-04T13:35:40.761Z,259.89744
2023-02-04T13:40:42.457Z,253.54774
2023-02-04T13:45:44.301Z,234.56604
2023-02-04T13:50:46.242Z,268.21053
2023-02-04T13:55:48.272Z,247.44828
2023-02-04T14:00:50.013Z,298.02299
2023-02-04T14:05:51.741Z,268.21053
2023-02-04T14:10:53.656Z,268.21053
2023-02-04T14:15:55.305Z,258.28571
2023-02-04T14:20:57.002Z,271.65957
2023-02-04T14:25:58.978Z,259.89744
2023-02-04T14:31:00.790Z,259.89744
2023-02-04T14:36:02.642Z,263.17098
2023-02-04T14:41:04.407Z,263.17098
2023-02-04T14:46:06.108Z,269.92593
2023-02-04T14:51:07.999Z,258.28571
2023-02-04T14:56:09.785Z,256.69036
2023-02-04T15:01:11.792Z,259.89744
2023-02-04T15:06:13.859Z,241.58454
2023-02-04T15:11:15.603Z,238.73684
2023-02-04T15:16:17.312Z,252
2023-02-04T15:21:19.232Z,261.52577
2023-02-04T15:26:20.991Z,252
2023-02-04T15:31:22.809Z,266.51309
2023-02-04T15:36:24.605Z,258.28571
2023-02-04T15:41:26.264Z,264.83333
2023-02-04T15:46:28.127Z,243.02913
2023-02-04T15:51:29.917Z,261.52577
2023-02-04T15:56:31.619Z,253.54774
2023-02-04T16:01:33.761Z,263.17098
2023-02-04T16:06:35.623Z,207.24786
2023-02-04T16:11:37.241Z,256.69036
2023-02-04T16:16:38.930Z,266.51309
2023-02-04T16:21:40.563Z,245.96078
2023-02-04T16:26:42.260Z,248.9505
2023-02-04T16:31:43.988Z,252
2023-02-04T16:36:45.976Z,243.02913
2023-02-04T16:41:47.649Z,256.69036
2023-02-04T16:46:49.430Z,253.54774
2023-02-04T16:51:51.184Z,252
2023-02-04T16:56:52.923Z,276.97297
2023-02-04T17:01:54.594Z,292.0226
2023-02-04T17:06:56.400Z,266.51309
2023-02-04T17:11:58.047Z,261.52577
2023-02-04T17:16:59.872Z,263.17098
2023-02-04T17:22:01.497Z,258.28571
2023-02-04T17:27:03.304Z,282.46154
2023-02-04T17:32:04.952Z,276.97297
2023-02-04T17:37:06.699Z,275.1828
2023-02-04T17:42:08.336Z,275.1828
2023-02-04T17:47:09.977Z,284.33149
2023-02-04T17:52:11.887Z,294
2023-02-04T17:57:13.499Z,294
2023-02-04T18:02:15.277Z,304.23392
2023-02-04T18:07:17.364Z,292.0226
2023-02-04T18:12:19.076Z,300.06936
2023-02-04T18:17:20.695Z,298.02299
2023-02-04T18:22:22.316Z,282.46154
2023-02-04T18:27:24.726Z,288.13408
2023-02-04T18:32:26.558Z,296
2023-02-04T18:37:28.216Z,308.49704
2023-02-04T18:42:29.802Z,298.02299
2023-02-04T18:47:31.853Z,292.0226
2023-02-04T18:52:33.621Z,298.02299
2023-02-04T18:57:35.318Z,324.24691
2023-02-04T19:02:37.076Z,310.66667
2023-02-04T19:07:38.799Z,321.91411
2023-02-04T19:12:40.472Z,331.42138
2023-02-04T19:17:42.122Z,315.08434
2023-02-04T19:22:43.840Z,0
2023-02-04T19:27:45.679Z,0
2023-02-04T19:32:47.622Z,331.42138
2023-02-04T19:37:49.255Z,317.33333
2023-02-04T19:42:50.894Z,321.91411
2023-02-04T19:47:52.527Z,0
2023-02-04T19:52:54.176Z,0
2023-02-04T19:57:55.979Z,0
2023-02-04T20:02:57.862Z,312.86228
2023-02-04T20:07:59.465Z,0
2023-02-04T20:13:01.398Z,0
2023-02-04T20:18:03.017Z,0
2023-02-04T20:23:04.746Z,0
2023-02-04T20:28:06.466Z,0
2023-02-04T20:33:08.167Z,0
2023-02-04T20:38:10.111Z,0
2023-02-04T20:43:11.980Z,0
2023-02-04T20:48:13.658Z,0
2023-02-04T20:53:15.297Z,0
2023-02-04T20:58:16.904Z,0
2023-02-04T21:03:18.523Z,0
2023-02-04T21:08:20.258Z,333.87342
2023-02-04T21:13:21.928Z,0
2023-02-04T21:18:23.699Z,0
2023-02-04T21:23:25.451Z,0
2023-02-04T21:28:27.045Z,0
2023-02-04T21:33:28.808Z,0
2023-02-04T21:38:30.544Z,0
2023-02-04T21:43:32.242Z,0
2023-02-04T21:48:33.903Z,0
2023-02-04T21:53:35.572Z,0
2023-02-04T21:58:37.301Z,0
2023-02-04T22:03:38.972Z,0
2023-02-04T22:08:40.639Z,0
2023-02-04T22:13:42.303Z,0
2023-02-04T22:18:43.978Z,0
2023-02-04T22:23:45.676Z,0
2023-02-04T22:28:47.293Z,0
2023-02-04T22:33:49.003Z,0
2023-02-04T22:38:50.622Z,0
2023-02-04T22:43:52.227Z,0
2023-02-04T22:48:53.905Z,0
2023-02-04T22:53:55.518Z,0
2023-02-04T22:58:57.221Z,0
2023-02-04T23:03:58.892Z,0
2023-02-04T23:09:00.584Z,0
2023-02-04T23:14:02.364Z,0
2023-02-04T23:19:04.395Z,0
2023-02-04T23:24:06.044Z,0
2023-02-04T23:29:07.712Z,0
2023-02-04T23:34:09.376Z,0
2023-02-04T23:39:11.052Z,0
2023-02-04T23:44:12.961Z,0
2023-02-04T23:49:14.618Z,0
2023-02-04T23:54:16.279Z,0
2023-02-04T23:59:18.214Z,310.66667
